Time;durP1;ratioP1;P1;durP2;ratioP2;P2;SDS_P1;SDS_P2;PMS_P1;PMS_P2;Temp;Humidity;BMP_temperature;BMP_pressure;BME280_temperature;BME280_humidity;BME280_pressure;Samples;Min_cycle;Max_cycle;Signal;HPM_P1;HPM_P2
2022/08/12 00:43:10;;;;;;;13.05;11.08;;;;;;;23.00;66.44;100559.18;1643880;87;21230;-58
2022/08/12 00:46:31;;;;;;;18.42;12.98;;;;;;;23.01;66.48;100559.46;1634687;86;21232;-56
2022/08/12 00:49:38;;;;;;;14.00;10.65;;;;;;;23.02;66.52;100559.78;1643847;87;21294;-56
2022/08/12 00:52:46;;;;;;;11.90;10.68;;;;;;;23.01;66.52;100553.88;1635684;86;21196;-56
2022/08/12 00:55:52;;;;;;;14.60;10.95;;;;;;;22.99;66.56;100551.34;1644110;87;21262;-57
2022/08/12 00:58:58;;;;;;;14.00;11.40;;;;;;;23.00;66.60;100564.77;1670322;86;21261;-57
2022/08/12 01:02:03;;;;;;;14.05;10.45;;;;;;;22.99;66.65;100561.11;1675783;85;21277;-58
2022/08/12 01:12:08;;;;;;;15.48;11.33;;;;;;;22.97;66.70;100563.88;1632362;88;21267;-57
2022/08/12 01:15:16;;;;;;;16.23;11.45;;;;;;;22.96;66.74;100567.20;1632382;87;21307;-57
2022/08/12 01:18:28;;;;;;;14.00;11.30;;;;;;;22.95;66.78;100573.05;1635847;87;21234;-58
2022/08/12 01:22:04;;;;;;;15.45;11.95;;;;;;;22.93;66.81;100570.50;1669516;86;21223;-58
2022/08/12 01:25:22;;;;;;;15.58;11.93;;;;;;;22.92;66.88;100560.45;1665078;85;21226;-58
2022/08/12 01:28:28;;;;;;;16.23;11.78;;;;;;;22.92;66.96;100552.61;1642884;87;21203;-57
2022/08/12 01:31:34;;;;;;;20.70;12.55;;;;;;;22.91;67.03;100552.32;1668544;85;21231;-56
2022/08/12 01:34:42;;;;;;;14.03;11.43;;;;;;;22.92;67.10;100549.28;1668546;85;21248;-58
2022/08/12 01:38:04;;;;;;;17.40;12.53;;;;;;;22.93;67.13;100547.34;1643004;87;21230;-58
2022/08/12 01:41:11;;;;;;;14.60;12.25;;;;;;;22.96;67.16;100545.44;1668806;85;21234;-56
2022/08/12 01:44:18;;;;;;;13.03;11.55;;;;;;;22.97;67.20;100552.16;1668763;85;21223;-56
2022/08/12 01:47:50;;;;;;;16.00;12.18;;;;;;;22.99;67.23;100558.89;1643151;87;21259;-59
2022/08/12 01:51:09;;;;;;;13.18;11.68;;;;;;;22.99;67.25;100561.69;1667652;84;21281;-58
2022/08/12 01:54:24;;;;;;;19.52;12.18;;;;;;;22.99;67.27;100556.09;1668049;85;21262;-56
2022/08/12 01:57:38;;;;;;;15.40;11.68;;;;;;;22.99;67.28;100556.09;1643154;86;21321;-58
2022/08/12 02:00:51;;;;;;;16.07;11.25;;;;;;;22.97;67.31;100551.30;1669380;84;21243;-57
2022/08/12 02:11:36;;;;;;;14.47;12.13;;;;;;;22.86;67.40;100542.45;1633988;87;21267;-58
2022/08/12 02:15:22;;;;;;;14.30;11.73;;;;;;;22.85;67.48;100542.17;1633115;87;21359;-58
2022/08/12 02:18:42;;;;;;;17.00;11.75;;;;;;;22.81;67.55;100554.92;1633056;88;21263;-57
2022/08/12 02:22:19;;;;;;;13.25;11.90;;;;;;;22.78;67.61;100535.89;1634050;87;21308;-58
2022/08/12 02:25:34;;;;;;;15.13;12.47;;;;;;;22.76;67.69;100552.03;1633710;87;21215;-58
2022/08/12 02:28:43;;;;;;;15.48;12.45;;;;;;;22.76;67.75;100549.23;1634116;88;21259;-58
2022/08/12 02:31:52;;;;;;;13.68;12.23;;;;;;;22.74;67.78;100551.45;1634055;87;21295;-59
2022/08/12 02:34:58;;;;;;;14.00;12.25;;;;;;;22.74;67.80;100555.64;1633361;87;21227;-56
2022/08/12 02:38:05;;;;;;;16.93;12.85;;;;;;;22.72;67.82;100562.84;1634048;88;21207;-57
2022/08/12 02:41:12;;;;;;;17.17;12.43;;;;;;;22.71;67.85;100562.56;1618201;87;21338;-58
2022/08/12 02:44:22;;;;;;;15.63;12.37;;;;;;;22.69;67.82;100566.71;1635040;86;21212;-59
2022/08/12 02:47:30;;;;;;;14.13;12.63;;;;;;;22.67;67.88;100571.69;1634519;87;21224;-58
2022/08/12 02:50:40;;;;;;;14.68;12.78;;;;;;;22.65;67.91;100582.25;1634534;86;21231;-58
2022/08/12 02:53:50;;;;;;;13.88;12.35;;;;;;;22.62;67.98;100581.35;1634809;87;21208;-57
2022/08/12 02:56:57;;;;;;;15.23;11.88;;;;;;;22.61;68.06;100583.86;1625373;87;21243;-56
2022/08/12 03:00:06;;;;;;;13.85;12.45;;;;;;;22.61;68.13;100593.05;1611822;88;21239;-57
2022/08/12 03:03:15;;;;;;;13.72;12.40;;;;;;;22.63;68.15;100595.05;1669696;84;21207;-56
2022/08/12 03:06:31;;;;;;;19.82;12.03;;;;;;;22.64;68.22;100603.75;1641574;87;21262;-57
2022/08/12 03:09:41;;;;;;;15.93;12.55;;;;;;;22.66;68.24;100604.89;1642132;87;21246;-58
2022/08/12 03:12:56;;;;;;;14.07;12.23;;;;;;;22.67;68.26;100616.34;1607236;88;21214;-58
2022/08/12 03:16:01;;;;;;;15.30;12.33;;;;;;;22.67;68.33;100614.95;1643790;86;21254;-57
2022/08/12 03:19:10;;;;;;;18.70;12.47;;;;;;;22.70;68.36;100614.45;1617714;87;21207;-57
2022/08/12 03:22:17;;;;;;;14.33;12.78;;;;;;;22.72;68.38;100612.27;1619153;87;21750;-57
2022/08/12 03:25:34;;;;;;;15.30;12.13;;;;;;;22.74;68.41;100610.91;1669248;84;21237;-57
2022/08/12 03:28:56;;;;;;;13.43;12.03;;;;;;;22.76;68.43;100610.12;1669215;85;21223;-57
2022/08/12 03:32:06;;;;;;;14.03;11.90;;;;;;;22.79;68.45;100617.13;1641762;87;21219;-56
2022/08/12 03:35:15;;;;;;;17.82;12.65;;;;;;;22.82;68.47;100611.05;1624427;87;21206;-56
2022/08/12 03:38:22;;;;;;;14.65;12.28;;;;;;;22.84;68.50;100606.92;1608112;88;21233;-56
2022/08/12 03:41:35;;;;;;;15.15;12.73;;;;;;;22.86;68.47;100613.66;1643138;86;21285;-57
2022/08/12 04:02:12;;;;;;;14.70;12.60;;;;;;;23.00;68.62;100629.00;1662205;84;21215;-57
2022/08/12 04:05:20;;;;;;;16.82;12.23;;;;;;;23.03;68.65;100635.47;1670705;85;21230;-58
2022/08/12 04:08:31;;;;;;;14.58;12.88;;;;;;;23.08;68.67;100625.80;1662416;84;21231;-57
2022/08/12 04:15:02;;;;;;;17.02;12.03;;;;;;;23.18;68.71;100641.36;1661571;86;21322;-57
2022/08/12 04:18:08;;;;;;;16.70;12.80;;;;;;;23.24;68.68;100640.34;1670951;85;21274;-57
2022/08/12 04:21:16;;;;;;;15.13;12.37;;;;;;;23.29;68.69;100634.88;1662399;84;21267;-58
2022/08/12 04:24:25;;;;;;;18.87;12.40;;;;;;;23.34;68.67;100640.56;1646206;86;21316;-57
2022/08/12 04:27:32;;;;;;;14.15;12.50;;;;;;;23.38;68.64;100643.13;1663711;84;21295;-57
2022/08/12 04:30:39;;;;;;;15.10;11.83;;;;;;;23.44;68.65;100638.78;1670346;85;21257;-57
2022/08/12 04:33:47;;;;;;;15.45;12.82;;;;;;;23.51;68.67;100627.44;1655156;86;21424;-56
2022/08/12 04:36:53;;;;;;;17.25;12.50;;;;;;;23.60;68.67;100621.16;1666337;85;21216;-56
2022/08/12 04:40:00;;;;;;;17.67;13.30;;;;;;;23.69;68.66;100632.75;1661001;84;21291;-56
2022/08/12 04:43:08;;;;;;;21.48;13.30;;;;;;;23.79;68.67;100626.47;1670130;85;21235;-56
2022/08/12 04:46:17;;;;;;;16.42;11.95;;;;;;;23.85;68.55;100631.89;1664572;84;21223;-56
2022/08/12 04:49:25;;;;;;;15.95;12.40;;;;;;;23.89;68.49;100634.48;1685311;84;21598;-56
2022/08/12 04:52:31;;;;;;;14.13;12.63;;;;;;;23.96;68.52;100613.33;1673607;84;22012;-55
2022/08/12 04:55:38;;;;;;;18.70;13.93;;;;;;;24.00;68.43;100610.33;1690472;84;21239;-56
2022/08/12 04:58:48;;;;;;;13.05;11.75;;;;;;;24.00;68.36;100613.98;1696248;83;21261;-58
2022/08/12 05:01:59;;;;;;;17.80;11.50;;;;;;;24.02;68.40;100606.73;1643300;85;21255;-56
2022/08/12 05:05:09;;;;;;;16.35;13.05;;;;;;;24.05;68.35;100598.67;1693227;83;21357;-56
2022/08/12 05:08:24;;;;;;;14.50;12.88;;;;;;;24.09;68.28;100581.65;1694218;84;21234;-56
2022/08/12 05:11:31;;;;;;;18.52;12.93;;;;;;;24.10;68.25;100581.94;1719761;83;21259;-58
2022/08/12 05:14:38;;;;;;;17.70;13.48;;;;;;;24.08;68.25;100598.16;1664634;84;21251;-56
2022/08/12 05:17:48;;;;;;;16.27;12.93;;;;;;;24.12;68.30;100604.91;1634047;88;21264;-57
2022/08/12 05:20:57;;;;;;;18.48;12.25;;;;;;;24.16;68.27;100603.30;1658418;86;21255;-57
2022/08/12 05:24:02;;;;;;;17.87;13.22;;;;;;;24.15;68.21;100609.98;1634282;88;22073;-58
2022/08/12 05:27:10;;;;;;;20.05;13.03;;;;;;;24.18;68.23;100609.46;1643083;86;21278;-58
2022/08/12 05:30:19;;;;;;;16.75;12.43;;;;;;;24.22;68.22;100602.26;1678976;85;21735;-58
2022/08/12 05:33:38;;;;;;;18.90;12.65;;;;;;;24.25;68.21;100589.69;1652512;85;21602;-57
2022/08/12 05:36:45;;;;;;;16.37;12.25;;;;;;;24.25;68.12;100590.55;1648980;85;21223;-57
2022/08/12 05:39:51;;;;;;;13.45;12.07;;;;;;;24.22;68.06;100596.66;1644035;86;21228;-57
2022/08/12 05:42:58;;;;;;;18.35;13.15;;;;;;;24.19;68.10;100598.58;1641320;86;21272;-56
2022/08/12 05:46:04;;;;;;;16.15;13.10;;;;;;;24.21;68.19;100596.92;1657515;85;21331;-56
2022/08/12 05:49:11;;;;;;;20.20;13.50;;;;;;;24.22;68.20;100602.26;1631857;86;21555;-56
2022/08/12 05:52:17;;;;;;;14.63;12.80;;;;;;;24.28;68.25;100607.35;1648296;86;21299;-57
2022/08/12 05:55:23;;;;;;;18.65;13.55;;;;;;;24.34;68.27;100601.56;1627199;86;21231;-56
2022/08/12 05:58:31;;;;;;;22.80;12.33;;;;;;;24.40;68.24;100596.34;1637148;86;21276;-57
2022/08/12 06:01:40;;;;;;;15.98;12.95;;;;;;;24.44;68.19;100597.50;1666601;85;21219;-56
2022/08/12 06:04:48;;;;;;;15.53;12.35;;;;;;;24.48;68.19;100605.66;1686664;83;21687;-56
2022/08/12 06:08:04;;;;;;;21.17;12.35;;;;;;;24.56;68.25;100610.80;1665118;85;21259;-56
2022/08/12 06:11:17;;;;;;;19.62;12.40;;;;;;;24.66;68.23;100623.56;1631402;86;21755;-57
2022/08/12 06:14:25;;;;;;;20.62;12.23;;;;;;;24.71;68.14;100643.23;1658098;85;21259;-56
2022/08/12 06:17:34;;;;;;;17.00;12.00;;;;;;;24.81;68.23;100653.70;1639653;86;21238;-60
2022/08/12 06:20:42;;;;;;;13.25;11.63;;;;;;;24.93;68.27;100658.59;1673833;84;21791;-57
2022/08/12 06:23:53;;;;;;;15.25;11.85;;;;;;;25.12;68.36;100661.91;1689315;84;21772;-57
2022/08/12 06:27:06;;;;;;;15.55;13.00;;;;;;;25.28;68.21;100676.34;1681914;84;21274;-60
2022/08/12 06:30:19;;;;;;;22.62;12.65;;;;;;;25.33;68.13;100690.41;1693912;83;21238;-58
2022/08/12 06:33:28;;;;;;;16.17;12.82;;;;;;;25.42;68.08;100691.68;1693235;83;21251;-57
2022/08/12 06:36:36;;;;;;;20.75;12.75;;;;;;;25.50;68.07;100692.02;1642265;86;21317;-58
2022/08/12 06:39:42;;;;;;;21.50;12.03;;;;;;;25.55;68.03;100680.86;1665072;84;21231;-58
2022/08/12 06:42:51;;;;;;;19.02;11.78;;;;;;;25.57;67.87;100690.41;1692857;84;21404;-57
2022/08/12 06:45:58;;;;;;;15.85;12.15;;;;;;;25.62;67.86;100703.08;1695662;83;21242;-57
2022/08/12 06:49:05;;;;;;;17.87;11.65;;;;;;;25.71;67.86;100701.47;1693999;83;21286;-57
2022/08/12 06:52:12;;;;;;;13.22;11.70;;;;;;;25.84;67.82;100698.22;1703712;84;21203;-58
2022/08/12 06:55:24;;;;;;;15.45;11.40;;;;;;;25.95;67.72;100692.44;1679806;83;21794;-58
2022/08/12 06:58:29;;;;;;;18.10;13.20;;;;;;;25.98;67.46;100701.71;1660548;86;21224;-57
2022/08/12 07:01:39;;;;;;;13.88;11.45;;;;;;;25.96;67.33;100699.72;1631080;87;21291;-58
2022/08/12 07:04:46;;;;;;;14.70;11.90;;;;;;;26.03;67.31;100710.75;1689799;84;21267;-58
2022/08/12 07:07:54;;;;;;;16.05;12.03;;;;;;;26.09;67.40;100714.73;1729210;83;21290;-57
2022/08/12 07:11:06;;;;;;;18.65;16.70;;;;;;;26.08;67.19;100721.48;1723343;83;21282;-57
2022/08/12 07:14:16;;;;;;;15.88;13.25;;;;;;;26.09;67.18;100725.11;1722793;83;21636;-58
2022/08/12 07:17:25;;;;;;;15.88;12.25;;;;;;;26.12;67.18;100735.25;1725228;83;21203;-58
2022/08/12 07:20:35;;;;;;;16.45;11.12;;;;;;;26.14;67.08;100742.84;1674377;84;21271;-59
2022/08/12 07:23:48;;;;;;;19.10;12.18;;;;;;;26.20;67.14;100740.91;1669811;85;21409;-58
2022/08/12 07:27:09;;;;;;;15.58;11.50;;;;;;;26.29;67.11;100741.54;1658879;85;21813;-58
2022/08/12 07:30:19;;;;;;;15.23;11.28;;;;;;;26.39;67.05;100749.19;1692754;83;21242;-57
2022/08/12 07:33:30;;;;;;;23.10;11.78;;;;;;;26.43;66.84;100746.14;1694445;84;21199;-58
2022/08/12 07:36:36;;;;;;;16.35;11.85;;;;;;;26.52;66.83;100751.53;1668166;85;21334;-59
2022/08/12 07:40:12;;;;;;;16.70;12.35;;;;;;;26.62;66.75;100755.81;1663665;85;21245;-58
2022/08/12 07:43:19;;;;;;;19.05;12.53;;;;;;;26.62;66.46;100758.63;1663469;84;21884;-58
2022/08/12 07:46:35;;;;;;;16.52;12.95;;;;;;;26.58;66.33;100758.86;1683674;85;21283;-57
2022/08/12 07:49:41;;;;;;;17.23;12.27;;;;;;;26.59;66.36;100746.53;1684932;85;21250;-57
2022/08/12 07:52:52;;;;;;;18.87;12.93;;;;;;;26.60;66.22;100743.14;1706891;82;21235;-57
2022/08/12 07:56:03;;;;;;;15.25;12.33;;;;;;;26.56;66.15;100736.39;1712567;83;21235;-56
2022/08/12 07:59:12;;;;;;;15.40;12.73;;;;;;;26.55;66.12;100736.94;1712913;84;21263;-57
2022/08/12 08:02:21;;;;;;;15.53;12.82;;;;;;;26.70;66.31;100743.23;1716932;82;21270;-56
2022/08/12 08:05:48;;;;;;;14.80;12.93;;;;;;;26.82;66.14;100744.70;1701308;83;21793;-58
2022/08/12 08:08:59;;;;;;;16.48;12.58;;;;;;;26.90;65.99;100742.78;1680410;83;21240;-57
2022/08/12 08:15:37;;;;;;;15.98;12.53;;;;;;;26.78;65.61;100737.95;1701385;82;21338;-57
2022/08/12 08:18:48;;;;;;;14.43;12.28;;;;;;;26.78;65.76;100729.53;1679788;84;21238;-57
2022/08/12 08:21:54;;;;;;;14.45;12.93;;;;;;;26.75;65.69;100721.62;1710966;83;21187;-58
2022/08/12 08:25:01;;;;;;;18.35;12.70;;;;;;;26.71;65.57;100720.48;1686739;84;21216;-57
2022/08/12 08:28:20;;;;;;;18.20;12.60;;;;;;;26.67;65.48;100729.16;1680188;83;21250;-57
2022/08/12 08:31:27;;;;;;;19.10;13.13;;;;;;;26.59;65.53;100719.84;1691399;83;21239;-56
2022/08/12 08:34:37;;;;;;;19.95;12.98;;;;;;;26.61;65.57;100714.78;1703845;82;21201;-57
2022/08/12 08:37:47;;;;;;;15.98;12.90;;;;;;;26.68;65.58;100714.02;1681313;85;21859;-58
2022/08/12 08:44:21;;;;;;;17.57;12.75;;;;;;;26.90;65.55;100712.42;1696884;83;21232;-56
2022/08/12 08:47:33;;;;;;;16.45;13.10;;;;;;;27.02;65.61;100713.05;1695528;84;21216;-56
2022/08/12 08:50:43;;;;;;;17.65;12.35;;;;;;;27.17;65.58;100712.53;1690574;84;21253;-56
2022/08/12 08:53:52;;;;;;;18.12;11.97;;;;;;;27.38;65.52;100719.94;1622090;87;21763;-56
2022/08/12 08:57:03;;;;;;;20.97;13.98;;;;;;;27.49;65.29;100730.08;1659777;86;21240;-57
2022/08/12 09:00:11;;;;;;;15.18;12.60;;;;;;;27.61;65.11;100733.47;1659878;86;21275;-57
2022/08/12 09:03:23;;;;;;;15.08;13.00;;;;;;;27.71;64.89;100734.05;1661460;85;21365;-58
2022/08/12 09:06:33;;;;;;;15.23;12.40;;;;;;;27.69;64.69;100742.77;1657401;86;21289;-57
2022/08/12 09:09:41;;;;;;;17.90;12.20;;;;;;;27.59;64.52;100745.55;1663080;85;21271;-58
2022/08/12 09:16:17;;;;;;;16.23;12.13;;;;;;;27.53;64.38;100739.64;1689011;85;21239;-58
2022/08/12 09:19:24;;;;;;;22.93;12.93;;;;;;;27.47;64.39;100739.35;1666479;85;21215;-58
2022/08/12 09:22:32;;;;;;;14.83;12.35;;;;;;;27.45;64.34;100738.77;1662049;85;21275;-59
2022/08/12 09:25:43;;;;;;;16.65;11.95;;;;;;;27.45;64.34;100738.77;1663348;85;21275;-58
2022/08/12 09:28:50;;;;;;;16.97;12.98;;;;;;;27.42;64.35;100737.93;1661725;85;21259;-59
2022/08/12 09:32:05;;;;;;;17.02;12.78;;;;;;;27.38;64.39;100735.41;1669058;84;21211;-59
2022/08/12 09:35:11;;;;;;;;;;;;;;;27.38;64.47;100724.16;1666130;85;21236;-59
2022/08/12 09:38:19;;;;;;;19.50;12.60;;;;;;;27.41;64.47;100725.55;1642568;86;20235;-58
2022/08/12 09:41:28;;;;;;;15.98;13.32;;;;;;;27.31;64.36;100716.53;1658519;86;21858;-59
2022/08/12 09:48:08;;;;;;;14.28;11.95;;;;;;;27.26;64.49;100730.57;1672458;84;21568;-58
2022/08/12 09:51:15;;;;;;;20.75;12.82;;;;;;;27.23;64.48;100742.34;1687665;84;21233;-58
2022/08/12 09:54:24;;;;;;;15.10;12.82;;;;;;;27.21;64.42;100738.13;1632284;87;21260;-58
2022/08/12 09:57:31;;;;;;;18.05;12.58;;;;;;;27.17;64.39;100733.61;1639602;86;21804;-58
2022/08/12 10:00:37;;;;;;;23.62;13.85;;;;;;;27.11;64.27;100734.72;1685631;84;21291;-58
2022/08/12 10:03:47;;;;;;;18.27;13.43;;;;;;;27.04;64.30;100735.52;1691249;84;21621;-57
2022/08/12 10:07:01;;;;;;;16.77;13.43;;;;;;;27.02;64.39;100737.76;1684306;85;21227;-59
2022/08/12 10:10:08;;;;;;;17.82;12.95;;;;;;;27.07;64.55;100734.97;1660137;85;21259;-60
2022/08/12 10:16:44;;;;;;;25.20;13.25;;;;;;;27.36;64.63;100746.63;1624431;87;21244;-60
2022/08/12 10:19:52;;;;;;;18.45;12.05;;;;;;;27.50;64.56;100754.27;1631237;86;21302;-61
2022/08/12 10:23:05;;;;;;;20.10;13.05;;;;;;;27.64;64.50;100756.82;1659944;85;21207;-61
2022/08/12 10:29:46;;;;;;;17.82;12.70;;;;;;;27.89;64.35;100774.34;1670059;85;21286;-60
2022/08/12 10:33:01;;;;;;;17.32;13.90;;;;;;;28.06;64.25;100779.14;1630910;86;21214;-59
2022/08/12 10:36:11;;;;;;;17.67;12.95;;;;;;;28.23;64.13;100774.61;1676868;84;21277;-60
2022/08/12 10:39:19;;;;;;;18.12;12.82;;;;;;;28.29;63.88;100777.73;1660394;85;21216;-60
2022/08/12 10:45:55;;;;;;;16.55;12.80;;;;;;;28.14;63.96;100755.20;1655187;86;21271;-60
2022/08/12 10:49:02;;;;;;;18.15;12.37;;;;;;;28.07;63.54;100744.22;1665234;86;21255;-60
2022/08/12 10:52:14;;;;;;;20.32;13.32;;;;;;;28.01;63.52;100742.53;1665335;86;21341;-59
2022/08/12 10:55:23;;;;;;;16.90;12.68;;;;;;;27.89;63.50;100731.27;1665420;86;21243;-59
2022/08/12 10:58:32;;;;;;;17.85;13.05;;;;;;;27.73;63.51;100714.92;1674824;85;21240;-60
2022/08/12 11:01:42;;;;;;;21.35;13.35;;;;;;;27.65;63.63;100742.20;1666371;84;21286;-61
2022/08/12 11:04:57;;;;;;;24.30;13.70;;;;;;;27.63;63.75;100751.47;1664243;85;21290;-61
2022/08/12 11:08:02;;;;;;;21.02;12.78;;;;;;;27.64;63.78;100748.38;1645076;85;21232;-59
2022/08/12 11:11:16;;;;;;;15.08;13.00;;;;;;;27.62;63.75;100742.77;1636768;87;21315;-61
2022/08/12 11:14:31;;;;;;;14.90;12.95;;;;;;;27.55;63.66;100740.77;1624621;88;21256;-60
2022/08/12 11:17:39;;;;;;;17.30;13.48;;;;;;;27.43;63.65;100730.34;1652967;87;21255;-59
2022/08/12 11:20:47;;;;;;;17.55;13.45;;;;;;;27.39;63.79;100727.79;1627362;88;21253;-60
2022/08/12 11:23:57;;;;;;;15.38;13.28;;;;;;;27.38;63.86;100722.75;1653627;87;21231;-59
2022/08/12 11:27:05;;;;;;;16.25;12.98;;;;;;;27.43;63.97;100707.84;1705444;83;21179;-61
2022/08/12 11:30:17;;;;;;;18.25;14.55;;;;;;;27.49;63.97;100713.20;1683757;84;21763;-59
2022/08/12 11:33:26;;;;;;;15.78;13.72;;;;;;;27.59;64.06;100716.01;1679344;84;22074;-59
2022/08/12 11:36:37;;;;;;;17.57;13.13;;;;;;;27.71;64.09;100708.16;1688034;84;21255;-61
2022/08/12 11:39:45;;;;;;;18.25;13.53;;;;;;;27.81;64.01;100705.33;1680945;85;21294;-59
2022/08/12 11:42:54;;;;;;;17.45;12.90;;;;;;;27.89;63.90;100705.94;1687206;85;21296;-60
2022/08/12 11:46:03;;;;;;;15.45;12.00;;;;;;;27.92;63.85;100702.01;1688892;81;21815;-60
2022/08/12 11:49:12;;;;;;;13.90;12.35;;;;;;;27.97;63.85;100708.19;1660848;85;21265;-59
2022/08/12 11:52:19;;;;;;;18.48;13.72;;;;;;;28.01;63.83;100705.08;1657196;86;21283;-58
2022/08/12 11:55:34;;;;;;;18.87;12.93;;;;;;;28.04;63.80;100700.28;1687472;85;21274;-60
2022/08/12 11:58:52;;;;;;;13.73;12.00;;;;;;;28.20;63.92;100693.52;1671968;85;21407;-58
2022/08/12 12:02:05;;;;;;;;;;;;;;;28.46;63.99;100692.34;1654873;84;22112;-60
2022/08/12 12:05:19;;;;;;;15.72;12.60;;;;;;;28.76;63.73;100679.59;1631301;87;20601;-56
2022/08/12 12:08:32;;;;;;;16.00;12.18;;;;;;;28.93;63.60;100675.84;1658174;86;21228;-59
2022/08/12 12:11:43;;;;;;;17.02;13.15;;;;;;;28.93;63.60;100675.84;1656372;86;21267;-57
2022/08/12 12:14:57;;;;;;;21.93;12.63;;;;;;;29.01;63.42;100676.09;1656531;86;21283;-60
2022/08/12 12:18:09;;;;;;;16.35;12.65;;;;;;;29.10;63.32;100677.75;1630853;86;21651;-60
2022/08/12 12:21:20;;;;;;;18.32;12.25;;;;;;;29.13;63.23;100676.61;1628612;88;21306;-60
2022/08/12 12:24:29;;;;;;;16.65;12.90;;;;;;;29.28;63.40;100685.55;1626910;87;21769;-59
2022/08/12 12:27:59;;;;;;;18.25;13.68;;;;;;;29.28;63.40;100685.55;1623566;87;21221;-58
2022/08/12 12:31:10;;;;;;;13.85;12.40;;;;;;;29.41;63.14;100680.69;1655063;85;21811;-58
2022/08/12 12:34:18;;;;;;;14.93;12.05;;;;;;;29.49;63.06;100683.44;1622683;87;21257;-61
2022/08/12 12:37:26;;;;;;;16.85;12.75;;;;;;;29.57;62.95;100682.27;1618549;88;21228;-59
2022/08/12 12:40:38;;;;;;;17.03;13.60;;;;;;;29.53;62.70;100670.42;1626240;87;21265;-59
2022/08/12 12:43:47;;;;;;;16.23;13.15;;;;;;;29.45;62.63;100657.78;1680718;84;21229;-60
2022/08/12 12:46:55;;;;;;;17.20;13.18;;;;;;;29.39;62.54;100649.09;1672695;83;21899;-58
2022/08/12 12:50:06;;;;;;;14.47;12.95;;;;;;;29.22;62.52;100648.66;1656073;86;21246;-59
2022/08/12 12:53:20;;;;;;;13.72;11.73;;;;;;;29.08;62.64;100651.84;1705635;83;21200;-59
2022/08/12 12:56:28;;;;;;;19.82;13.70;;;;;;;28.95;62.71;100648.21;1706402;83;21275;-59
2022/08/12 12:59:33;;;;;;;14.05;12.68;;;;;;;28.80;62.73;100648.28;1704977;84;21287;-59
2022/08/12 13:02:44;;;;;;;18.52;14.23;;;;;;;28.70;62.84;100641.30;1711863;83;22115;-59
2022/08/12 13:05:59;;;;;;;23.30;13.10;;;;;;;28.62;62.88;100644.13;1685643;83;21752;-56
2022/08/12 13:09:00;;;;;;;17.75;13.78;;;;;;;28.61;63.09;100649.50;1710548;83;21208;-56
2022/08/12 13:12:09;;;;;;;17.32;13.98;;;;;;;28.54;63.48;100648.13;1712491;83;21203;-56
2022/08/12 13:15:21;;;;;;;14.83;13.32;;;;;;;28.52;63.42;100640.52;1712516;83;21752;-56
2022/08/12 13:18:35;;;;;;;16.48;13.18;;;;;;;28.52;63.42;100640.52;1712861;83;21215;-57
2022/08/12 13:22:15;;;;;;;14.90;13.40;;;;;;;28.46;63.17;100636.86;1712912;83;21220;-57
2022/08/12 13:24:49;;;;;;;23.47;14.00;;;;;;;28.41;63.17;100631.80;1708576;83;21274;-56
2022/08/12 13:27:56;;;;;;;24.45;14.30;;;;;;;28.35;63.22;100630.95;1713517;83;21214;-57
2022/08/12 13:31:06;;;;;;;20.08;14.43;;;;;;;28.28;63.22;100625.34;1681555;84;21789;-57
2022/08/12 13:34:16;;;;;;;15.63;13.98;;;;;;;28.19;63.25;100625.11;1656170;86;21267;-57
2022/08/12 13:37:28;;;;;;;15.98;13.48;;;;;;;28.11;63.35;100627.10;1665182;85;21787;-57
2022/08/12 13:40:40;;;;;;;19.97;13.40;;;;;;;28.04;63.45;100618.64;1638292;87;21767;-58
2022/08/12 13:43:47;;;;;;;17.77;14.25;;;;;;;27.96;63.47;100617.26;1659182;85;21263;-58
2022/08/12 13:46:59;;;;;;;17.37;15.50;;;;;;;27.89;63.51;100625.17;1665263;85;21896;-57
2022/08/12 13:50:06;;;;;;;16.52;14.18;;;;;;;27.78;63.63;100624.28;1698743;83;21559;-57
2022/08/12 13:53:21;;;;;;;22.45;14.55;;;;;;;27.70;63.71;100624.86;1703956;83;21271;-57
2022/08/12 13:56:32;;;;;;;18.98;14.53;;;;;;;27.63;63.78;100622.05;1710639;82;21326;-59
2022/08/12 13:59:40;;;;;;;19.75;14.25;;;;;;;27.57;63.92;100617.00;1704046;82;21618;-57
2022/08/12 14:02:50;;;;;;;18.17;15.32;;;;;;;27.54;63.98;100611.09;1706903;82;21692;-58
2022/08/12 14:06:02;;;;;;;19.55;15.15;;;;;;;27.46;64.07;100615.29;1720101;82;21204;-58
2022/08/12 14:09:08;;;;;;;19.30;14.65;;;;;;;27.40;64.16;100611.38;1707927;82;21231;-57
2022/08/12 14:12:18;;;;;;;18.57;15.15;;;;;;;27.37;64.27;100614.17;1707248;82;21280;-57
2022/08/12 14:15:26;;;;;;;26.15;15.60;;;;;;;27.31;64.29;100608.81;1706217;83;21211;-57
2022/08/12 14:18:38;;;;;;;17.35;14.78;;;;;;;27.26;64.36;100601.23;1660554;85;21260;-57
2022/08/12 14:21:48;;;;;;;16.23;14.20;;;;;;;27.21;64.41;100601.19;1690959;83;21667;-57
2022/08/12 14:24:57;;;;;;;18.98;15.63;;;;;;;27.19;64.58;100597.83;1663806;85;21840;-56
2022/08/12 14:28:17;;;;;;;21.93;14.65;;;;;;;27.18;64.68;100601.75;1673642;84;21241;-58
2022/08/12 14:31:25;;;;;;;23.15;15.05;;;;;;;27.19;64.68;100605.41;1698826;83;21232;-58
2022/08/12 14:34:32;;;;;;;18.85;15.03;;;;;;;27.17;64.73;100601.48;1700556;83;21203;-57
2022/08/12 14:37:40;;;;;;;16.02;14.30;;;;;;;27.17;64.82;100602.88;1713154;83;21247;-58
2022/08/12 14:40:49;;;;;;;17.00;14.83;;;;;;;27.16;64.80;100599.77;1676384;84;21250;-57
2022/08/12 14:43:59;;;;;;;17.17;14.58;;;;;;;27.11;64.82;100604.00;1690236;84;21191;-58
2022/08/12 14:47:08;;;;;;;17.02;14.07;;;;;;;27.07;64.85;100591.61;1692305;84;21219;-58
2022/08/12 14:50:15;;;;;;;23.05;15.23;;;;;;;27.07;64.92;100594.42;1706087;83;21349;-58
2022/08/12 14:53:28;;;;;;;19.77;15.53;;;;;;;27.07;65.01;100590.77;1699313;83;21206;-57
2022/08/12 14:56:35;;;;;;;17.67;15.23;;;;;;;27.06;65.07;100594.70;1708924;82;21180;-58
2022/08/12 15:03:09;;;;;;;16.75;14.28;;;;;;;27.07;65.12;100594.97;1701936;83;21231;-57
2022/08/12 15:06:18;;;;;;;22.67;14.60;;;;;;;27.07;65.21;100611.29;1691156;85;21282;-57
2022/08/12 15:09:27;;;;;;;23.35;15.83;;;;;;;27.12;65.29;100606.23;1693631;84;21224;-58
2022/08/12 15:12:49;;;;;;;17.10;15.25;;;;;;;27.18;65.35;100609.36;1695865;83;21220;-57
2022/08/12 15:15:53;;;;;;;19.07;14.43;;;;;;;27.27;65.40;100607.70;1700769;83;21232;-57
2022/08/12 15:19:20;;;;;;;20.52;15.35;;;;;;;27.35;65.41;100612.19;1707097;82;21284;-57
2022/08/12 15:22:28;;;;;;;19.52;15.20;;;;;;;27.42;65.33;100607.70;1692093;84;21614;-60
2022/08/12 15:25:40;;;;;;;19.65;15.00;;;;;;;27.45;65.33;100616.98;1679094;84;21775;-60
2022/08/12 15:28:53;;;;;;;24.87;16.32;;;;;;;27.46;65.32;100631.34;1688885;85;21227;-57
2022/08/12 15:32:17;;;;;;;23.02;17.65;;;;;;;27.50;65.40;100636.67;1685423;85;21846;-58
2022/08/12 15:35:29;;;;;;;24.52;17.73;;;;;;;27.52;65.45;100631.06;1665517;85;21555;-57
2022/08/12 15:38:36;;;;;;;22.45;16.90;;;;;;;27.53;65.51;100631.34;1689693;84;21792;-58
2022/08/12 15:41:45;;;;;;;22.52;16.52;;;;;;;27.52;65.58;100628.80;1685046;84;21287;-60
2022/08/12 15:44:55;;;;;;;22.58;16.40;;;;;;;27.49;65.61;100618.97;1691051;85;21691;-59
2022/08/12 15:48:06;;;;;;;28.70;17.65;;;;;;;27.44;65.64;100619.52;1692498;85;21322;-58
2022/08/12 15:51:17;;;;;;;26.62;16.97;;;;;;;27.38;65.71;100621.50;1690073;84;21374;-58
2022/08/12 15:54:25;;;;;;;18.65;16.52;;;;;;;27.31;65.87;100615.30;1694110;84;21456;-58
2022/08/12 15:57:34;;;;;;;25.48;17.35;;;;;;;27.28;66.04;100613.05;1694541;83;21350;-58
2022/08/12 16:00:47;;;;;;;21.60;17.35;;;;;;;27.26;66.14;100607.38;1704172;83;21284;-58
2022/08/12 16:03:59;;;;;;;23.42;17.90;;;;;;;27.23;66.21;100608.78;1685381;84;21315;-60
2022/08/12 16:07:09;;;;;;;23.70;16.25;;;;;;;27.19;66.31;100601.20;1713178;83;21231;-58
2022/08/12 16:10:19;;;;;;;25.57;17.12;;;;;;;27.16;66.33;100592.73;1714148;83;21289;-57